Flight Information

DEPARTURE
BOISE, ID
Elevation:
2871
Runways:
10R/28L - 9763x150 - ASPH-G
10L/28R - 10000x150 - ASPH-G
Active PE Departure:
28L - 28R
Current PE ATIS:
Q
Altimeter:
30.17
Remarks:
V F R DEPARTURES CONTACT CLEARANCE DELIVERY, ADVISE ON COURSE HEADING, ALTITUDE, AND IF FLIGHT FOLLOWING IS REQUESTED.
ATIS:
123.9
Clearance Delivery:
125.9
Ground:
121.7
Tower:
BOISE TOWER 118.1
DESTINATION
,
Elevation:
TPA:
1000 (est.)


6520.2 NM71° True-17° Var54° HDG

Flight Plan:
(click to file on line)

1. Type
2. Aircraft Identification
3. Aircraft Type / Special Equipment
4. True Airspeed
kts
5. Departure Airport
(ICAO code)
6. Arriving Airport
(ICAO code)
7. Cruising Altitude
ft
8. Alternate Airport
(ICAO code)
9. Route of Flight
10. Remarks


00:00:00 Departure ATIS: Destination ATIS:

Clearance Limit:
Route:
Altitude: Expect in minutes
Frequency:
Transponder: (7500 Hijack / 7600 Lost Comms / 7700 Emergency)


KBOI 101653Z 32004KT 10SM CLR 23/10 A3017 RMK AO2 SLP190 T02280100
Time: 2020-07-10T16:53:00Z
1594400530
Winds: 320 @ 4 kts
Visibility: 10.0 sm
Clouds (AGL): CLR
Temperature: 22.8 C
Dew Point: 10.0 C
Pressure: 30.171259 in Hgbr


Notes:

Data extracted from FAA Digital Chart Supplement. Effective: 0901Z Thursday, May 21, 2020 to 0901Z Thursday, Jul 16, 2020
Current ATIS data is provided courtisy of PilotEdge.